createdAt,value
2022-11-14T00:03:09.053Z,1008.328
2022-11-14T00:23:07.851Z,1008.256
2022-11-14T00:43:07.603Z,1008.015
2022-11-14T01:03:08.271Z,1007.712
2022-11-14T01:23:07.956Z,1007.47
2022-11-14T01:43:07.700Z,1007.217
2022-11-14T02:03:08.432Z,1006.816
2022-11-14T02:23:07.275Z,1006.697
2022-11-14T02:43:08.130Z,1006.571
2022-11-14T03:03:08.893Z,1006.503
2022-11-14T03:23:07.653Z,1006.252
2022-11-14T03:43:07.293Z,1006.263
2022-11-14T04:03:08.045Z,1006.085
2022-11-14T04:23:07.707Z,1005.688
2022-11-14T04:43:07.479Z,1005.482
2022-11-14T05:03:08.153Z,1005.386
2022-11-14T05:23:07.861Z,1005.529
2022-11-14T05:43:07.976Z,1005.535
2022-11-14T06:03:08.673Z,1005.522
2022-11-14T06:23:07.428Z,1005.419
2022-11-14T06:43:07.278Z,1005.223
2022-11-14T07:03:08.355Z,1005.145
2022-11-14T07:23:07.382Z,1005.127
2022-11-14T07:43:07.240Z,1005.086
2022-11-14T08:03:08.946Z,1005.024
2022-11-14T08:23:07.811Z,1004.895
2022-11-14T08:43:07.747Z,1004.936
2022-11-14T09:03:08.655Z,1005.071
2022-11-14T09:23:07.584Z,1005.188
2022-11-14T09:43:07.486Z,1004.962
2022-11-14T10:03:08.421Z,1004.688
2022-11-14T10:23:07.298Z,1004.726
2022-11-14T10:43:07.214Z,1004.606
2022-11-14T11:03:09.048Z,1004.402
2022-11-14T11:23:07.993Z,1004.497
2022-11-14T11:43:40.828Z,1004.474
2022-11-14T12:03:08.940Z,1004.106
2022-11-14T12:23:07.799Z,1004.114
2022-11-14T12:43:07.752Z,1003.78
2022-11-14T13:03:08.673Z,1003.77
2022-11-14T13:23:07.348Z,1003.514
2022-11-14T13:43:07.194Z,1003.372
2022-11-14T14:03:08.996Z,1002.922
2022-11-14T14:23:07.924Z,1002.894
2022-11-14T14:43:07.822Z,1003.067
2022-11-14T15:03:08.651Z,1003.069
2022-11-14T15:23:07.399Z,1002.843
2022-11-14T15:43:07.313Z,1002.607
2022-11-14T16:03:08.190Z,1002.254
2022-11-14T16:23:08.036Z,1002.095
2022-11-14T16:43:07.952Z,1001.946
2022-11-14T17:03:08.768Z,1001.89
2022-11-14T17:23:07.547Z,1001.814
2022-11-14T17:43:07.483Z,1001.792
2022-11-14T18:03:08.378Z,1001.36
2022-11-14T18:23:07.276Z,1001.365
2022-11-14T18:43:07.227Z,1001.057
2022-11-14T19:03:08.394Z,1001.099
2022-11-14T19:23:07.230Z,1001.111
2022-11-14T19:43:07.534Z,1001.022
2022-11-14T20:03:08.544Z,1001.068
2022-11-14T20:23:07.382Z,1001.062
2022-11-14T20:43:07.370Z,1001.263
2022-11-14T21:03:08.290Z,1001.395
2022-11-14T21:23:07.206Z,1001.498
2022-11-14T21:43:07.276Z,1001.576
2022-11-14T22:03:09.099Z,1001.711
2022-11-14T22:23:08.066Z,1001.69
2022-11-14T22:43:08.085Z,1001.714
2022-11-14T23:03:08.480Z,1001.705
2022-11-14T23:23:07.178Z,1001.526
2022-11-14T23:43:07.805Z,1001.484
